createdAt,value
2019-01-11T00:00:32.601Z,63.88
2019-01-11T00:04:42.185Z,63.77
2019-01-11T00:08:54.711Z,63.54
2019-01-11T00:13:02.380Z,63.77
2019-01-11T00:17:13.226Z,63.94
2019-01-11T00:21:24.250Z,64.05
2019-01-11T00:25:31.287Z,64.11
2019-01-11T00:29:40.002Z,63.86
2019-01-11T00:33:46.948Z,64.07
2019-01-11T00:37:54.158Z,64.05
2019-01-11T00:42:04.083Z,63.75
2019-01-11T00:46:12.862Z,63.75
2019-01-11T00:50:23.277Z,63.72
2019-01-11T00:54:30.547Z,63.89
2019-01-11T00:58:37.591Z,63.13
2019-01-11T01:02:44.728Z,63.07
2019-01-11T01:06:51.612Z,63.33
2019-01-11T01:10:58.529Z,63.56
2019-01-11T01:15:07.816Z,63.76
2019-01-11T01:19:20.137Z,63.76
2019-01-11T01:23:26.637Z,63.90
2019-01-11T01:27:33.892Z,64.17
2019-01-11T01:31:41.670Z,64.69
2019-01-11T01:35:48.568Z,65.70
2019-01-11T01:39:55.489Z,65.79
2019-01-11T01:44:04.204Z,67.00
2019-01-11T01:48:11.275Z,67.07
2019-01-11T01:52:20.021Z,68.09
2019-01-11T01:56:26.942Z,68.49
2019-01-11T02:00:33.950Z,68.63
2019-01-11T02:04:41.061Z,69.20
2019-01-11T02:08:47.971Z,69.26
2019-01-11T02:12:54.853Z,69.48
2019-01-11T02:17:03.609Z,69.51
2019-01-11T02:21:10.784Z,69.67
2019-01-11T02:25:18.205Z,70.10
2019-01-11T02:29:25.159Z,70.23
2019-01-11T02:33:32.246Z,70.63
2019-01-11T02:37:40.491Z,70.55
2019-01-11T02:41:47.367Z,71.03
2019-01-11T02:45:56.243Z,71.73
2019-01-11T02:50:02.785Z,71.97
2019-01-11T02:54:09.749Z,73.02
2019-01-11T02:58:16.668Z,73.76
2019-01-11T03:02:25.851Z,73.22
2019-01-11T03:06:32.835Z,73.84
2019-01-11T03:10:39.763Z,72.97
2019-01-11T03:14:46.681Z,73.33
2019-01-11T03:18:53.563Z,74.36
2019-01-11T03:23:00.451Z,74.19
2019-01-11T03:27:07.377Z,74.58
2019-01-11T03:31:42.443Z,75.38
2019-01-11T03:35:49.382Z,74.79
2019-01-11T03:39:56.391Z,74.85
2019-01-11T03:44:03.483Z,74.93
2019-01-11T03:48:10.549Z,75.09
2019-01-11T03:52:17.443Z,75.26
2019-01-11T03:56:24.373Z,75.70
2019-01-11T04:00:31.343Z,75.47
2019-01-11T04:04:38.231Z,75.41
2019-01-11T04:08:45.123Z,75.52
2019-01-11T04:12:52.001Z,75.66
2019-01-11T04:16:59.014Z,75.53
2019-01-11T04:21:06.083Z,75.84
2019-01-11T04:25:27.520Z,75.85
2019-01-11T04:29:34.585Z,75.90
2019-01-11T04:33:41.502Z,76.17
2019-01-11T04:37:48.775Z,76.67
2019-01-11T04:41:55.688Z,77.24
2019-01-11T04:46:02.646Z,78.03
2019-01-11T04:50:12.023Z,79.71
2019-01-11T04:54:20.194Z,80.69
2019-01-11T04:58:27.145Z,81.51
2019-01-11T05:02:34.747Z,82.15
2019-01-11T05:06:42.953Z,83.54
2019-01-11T05:10:50.314Z,84.15
2019-01-11T05:14:57.263Z,84.28
2019-01-11T05:19:04.135Z,85.11
2019-01-11T05:23:12.196Z,85.21
2019-01-11T05:27:19.249Z,85.41
2019-01-11T05:31:26.232Z,85.57
2019-01-11T05:35:33.057Z,85.78
2019-01-11T05:39:41.183Z,86.30
2019-01-11T05:43:48.133Z,86.77
2019-01-11T05:47:55.165Z,87.29
2019-01-11T05:52:02.251Z,87.49
2019-01-11T05:56:12.099Z,87.64
2019-01-11T06:00:19.063Z,88.06
2019-01-11T06:04:44.618Z,88.60
2019-01-11T06:08:51.658Z,88.72
2019-01-11T06:12:58.575Z,89.16
2019-01-11T06:17:05.429Z,89.53
2019-01-11T06:21:15.230Z,89.93
2019-01-11T06:25:22.214Z,90.13
2019-01-11T06:29:29.040Z,90.25
2019-01-11T06:33:35.937Z,90.45
2019-01-11T06:37:42.812Z,90.77
2019-01-11T06:41:56.337Z,90.93
2019-01-11T06:46:03.248Z,91.29
2019-01-11T06:50:13.890Z,91.44
2019-01-11T06:54:20.822Z,91.31
2019-01-11T06:58:27.778Z,91.37
2019-01-11T07:02:34.660Z,91.33
2019-01-11T07:06:41.521Z,91.27
2019-01-11T07:10:48.515Z,91.18
2019-01-11T07:14:56.959Z,91.21
2019-01-11T07:19:03.931Z,91.14
2019-01-11T07:23:11.222Z,91.23
2019-01-11T07:27:18.470Z,91.05
2019-01-11T07:31:30.011Z,90.96
2019-01-11T07:35:50.626Z,91.05
2019-01-11T07:39:57.575Z,91.25
2019-01-11T07:44:04.791Z,91.37
2019-01-11T07:48:11.988Z,91.64
2019-01-11T07:52:20.017Z,91.66
2019-01-11T07:56:28.516Z,91.78
2019-01-11T08:00:35.501Z,91.93
2019-01-11T08:04:42.680Z,92.15
2019-01-11T08:08:49.883Z,92.17
2019-01-11T08:12:56.903Z,92.08
2019-01-11T08:17:04.047Z,92.19
2019-01-11T08:21:12.382Z,92.27
2019-01-11T08:25:20.766Z,92.46
2019-01-11T08:29:29.552Z,92.58
2019-01-11T08:33:47.955Z,92.70
2019-01-11T08:37:55.333Z,92.52
2019-01-11T08:42:02.322Z,92.47
2019-01-11T08:46:09.620Z,92.36
2019-01-11T08:50:22.825Z,92.50
2019-01-11T08:54:29.950Z,92.51
2019-01-11T08:58:37.089Z,92.66
2019-01-11T09:02:44.442Z,92.75
2019-01-11T09:06:51.419Z,92.87
2019-01-11T09:11:00.367Z,92.98
2019-01-11T09:15:08.981Z,93.06
2019-01-11T09:19:16.217Z,92.99
2019-01-11T09:23:23.476Z,92.95
2019-01-11T09:27:32.109Z,92.87
2019-01-11T09:31:41.375Z,92.71
2019-01-11T09:35:48.492Z,92.68
2019-01-11T09:39:56.303Z,92.57
2019-01-11T09:44:03.191Z,92.44
2019-01-11T09:48:10.109Z,92.35
2019-01-11T09:52:40.255Z,92.05
2019-01-11T09:56:51.991Z,91.90
2019-01-11T10:00:59.365Z,91.59
2019-01-11T10:05:16.951Z,91.77
2019-01-11T10:09:50.267Z,91.62
2019-01-11T10:13:58.815Z,91.48
2019-01-11T10:18:17.831Z,91.41
2019-01-11T10:22:23.300Z,91.45
2019-01-11T10:26:30.533Z,91.51
2019-01-11T10:30:37.931Z,91.25
2019-01-11T10:34:48.029Z,91.38
2019-01-11T10:39:26.391Z,91.27
2019-01-11T10:43:31.706Z,91.35
2019-01-11T10:47:39.144Z,91.05
2019-01-11T10:51:46.179Z,91.29
2019-01-11T10:55:53.517Z,91.41
2019-01-11T11:00:00.791Z,91.48
2019-01-11T11:04:08.246Z,91.68
2019-01-11T11:08:16.400Z,91.41
2019-01-11T11:12:23.763Z,91.56
2019-01-11T11:16:41.651Z,91.50
2019-01-11T11:20:49.960Z,91.62
2019-01-11T11:24:58.580Z,91.48
2019-01-11T11:29:10.250Z,91.95
2019-01-11T11:33:17.759Z,91.50
2019-01-11T11:37:26.705Z,91.60
2019-01-11T11:41:34.504Z,91.58
2019-01-11T11:45:44.784Z,91.69
2019-01-11T11:49:52.955Z,91.84
2019-01-11T11:54:02.450Z,91.91
2019-01-11T11:58:11.197Z,91.92
2019-01-11T12:02:19.413Z,91.97
2019-01-11T12:06:29.673Z,91.99
2019-01-11T12:10:37.006Z,92.12
2019-01-11T12:14:44.054Z,92.22
2019-01-11T12:18:53.146Z,92.44
2019-01-11T12:23:03.064Z,92.48
2019-01-11T12:27:10.157Z,92.54
2019-01-11T12:31:17.083Z,92.62
2019-01-11T12:35:24.383Z,92.70
2019-01-11T12:39:31.472Z,92.74
2019-01-11T12:43:38.410Z,92.86
2019-01-11T12:47:45.457Z,92.96
2019-01-11T12:51:55.462Z,93.09
2019-01-11T12:56:02.541Z,93.07
2019-01-11T13:00:13.425Z,93.12
2019-01-11T13:04:20.452Z,93.07
2019-01-11T13:08:27.372Z,93.13
2019-01-11T13:12:34.557Z,93.22
2019-01-11T13:16:41.554Z,93.27
2019-01-11T13:20:48.664Z,93.37
2019-01-11T13:24:59.787Z,93.41
2019-01-11T13:29:07.224Z,93.44
2019-01-11T13:33:18.720Z,93.44
2019-01-11T13:37:25.841Z,93.57
2019-01-11T13:41:33.080Z,93.65
2019-01-11T13:45:41.130Z,93.65
2019-01-11T13:49:56.004Z,93.43
2019-01-11T13:54:05.142Z,93.25
2019-01-11T13:58:15.000Z,93.19
2019-01-11T14:02:22.115Z,93.04
2019-01-11T14:06:31.057Z,93.06
2019-01-11T14:10:38.554Z,92.99
2019-01-11T14:14:50.508Z,92.86
2019-01-11T14:19:02.185Z,92.91
2019-01-11T14:23:12.364Z,93.06
2019-01-11T14:27:21.059Z,93.22
2019-01-11T14:31:31.197Z,93.17
2019-01-11T14:35:38.587Z,93.18
2019-01-11T14:39:45.781Z,93.48
2019-01-11T14:43:54.277Z,93.51
2019-01-11T14:48:09.779Z,93.53
2019-01-11T14:52:20.557Z,93.45
2019-01-11T14:56:27.683Z,93.29
2019-01-11T15:00:34.924Z,93.16
2019-01-11T15:04:42.214Z,93.26
2019-01-11T15:08:51.404Z,93.23
2019-01-11T15:13:01.858Z,93.21
2019-01-11T15:17:11.006Z,93.24
2019-01-11T15:21:18.417Z,93.25
2019-01-11T15:25:28.174Z,93.34
2019-01-11T15:29:35.261Z,93.35
2019-01-11T15:33:42.433Z,93.30
2019-01-11T15:37:49.558Z,93.54
2019-01-11T15:41:56.828Z,93.36
2019-01-11T15:46:06.781Z,93.52
2019-01-11T15:50:17.840Z,93.81
2019-01-11T15:54:24.910Z,93.78
2019-01-11T15:58:32.124Z,93.70
2019-01-11T16:02:39.083Z,93.70
2019-01-11T16:06:47.941Z,93.75
2019-01-11T16:11:38.273Z,93.78
2019-01-11T16:16:33.725Z,93.69
2019-01-11T16:20:43.371Z,93.83
2019-01-11T16:24:50.373Z,93.86
2019-01-11T16:28:57.497Z,93.73
2019-01-11T16:33:04.563Z,93.71
2019-01-11T16:37:11.573Z,93.69
2019-01-11T16:41:18.569Z,93.71
2019-01-11T16:45:27.346Z,93.66
2019-01-11T16:49:34.310Z,93.64
2019-01-11T16:53:41.222Z,93.78
2019-01-11T16:57:48.214Z,94.01
2019-01-11T17:01:55.193Z,94.16
2019-01-11T17:06:02.305Z,94.15
2019-01-11T17:10:12.480Z,93.93
2019-01-11T17:14:19.533Z,93.94
2019-01-11T17:18:28.498Z,94.04
2019-01-11T17:22:35.720Z,93.96
2019-01-11T17:26:45.744Z,94.04
2019-01-11T17:30:54.545Z,94.03
2019-01-11T17:35:02.252Z,93.83
2019-01-11T17:39:11.287Z,93.85
2019-01-11T17:43:18.336Z,93.75
2019-01-11T17:47:27.443Z,93.64
2019-01-11T17:51:34.498Z,93.51
2019-01-11T17:55:41.417Z,93.34
2019-01-11T17:59:48.428Z,93.37
2019-01-11T18:03:56.690Z,93.30
2019-01-11T18:08:04.144Z,93.32
2019-01-11T18:12:11.405Z,93.27
2019-01-11T18:16:18.667Z,93.32
2019-01-11T18:20:31.131Z,93.25
2019-01-11T18:24:38.447Z,93.27
2019-01-11T18:28:47.831Z,93.36
2019-01-11T18:32:55.754Z,93.33
2019-01-11T18:37:03.814Z,93.30
2019-01-11T18:41:11.067Z,93.47
2019-01-11T18:45:18.167Z,93.51
2019-01-11T18:49:26.592Z,93.58
2019-01-11T18:53:33.579Z,93.66
2019-01-11T18:58:01.984Z,93.60
2019-01-11T19:02:09.245Z,93.72
2019-01-11T19:06:16.667Z,94.13
2019-01-11T19:10:27.656Z,94.23
2019-01-11T19:14:37.478Z,94.10
2019-01-11T19:18:44.775Z,94.12
2019-01-11T19:22:52.172Z,94.25
2019-01-11T19:27:00.967Z,94.52
2019-01-11T19:31:08.214Z,94.40
2019-01-11T19:35:16.862Z,94.41
2019-01-11T19:39:25.195Z,94.26
2019-01-11T19:43:32.558Z,94.22
2019-01-11T19:47:40.625Z,94.18
2019-01-11T19:51:48.030Z,94.12
2019-01-11T19:55:58.951Z,94.17
2019-01-11T20:00:08.010Z,94.09
2019-01-11T20:04:17.545Z,94.21
2019-01-11T20:08:24.673Z,94.46
2019-01-11T20:12:33.140Z,94.74
2019-01-11T20:16:40.173Z,94.93
2019-01-11T20:20:47.796Z,95.03
2019-01-11T20:24:58.946Z,95.18
2019-01-11T20:29:06.604Z,95.55
2019-01-11T20:33:15.551Z,96.08
2019-01-11T20:37:43.207Z,96.22
2019-01-11T20:41:51.979Z,96.38
2019-01-11T20:46:03.169Z,96.54
2019-01-11T20:50:11.048Z,96.71
2019-01-11T20:54:18.418Z,96.81
2019-01-11T20:58:25.598Z,96.83
2019-01-11T21:02:32.900Z,96.86
2019-01-11T21:06:48.984Z,96.98
2019-01-11T21:10:57.734Z,96.92
2019-01-11T21:15:06.184Z,96.91
2019-01-11T21:19:13.460Z,96.82
2019-01-11T21:23:20.642Z,96.90
2019-01-11T21:27:30.759Z,96.92
2019-01-11T21:31:38.976Z,96.91
2019-01-11T21:35:49.026Z,96.84
2019-01-11T21:39:56.166Z,96.86
2019-01-11T21:44:03.385Z,96.90
2019-01-11T21:48:10.349Z,96.84
2019-01-11T21:52:17.557Z,96.72
2019-01-11T21:56:25.495Z,96.53
2019-01-11T22:00:37.895Z,96.57
2019-01-11T22:04:55.385Z,96.53
2019-01-11T22:09:12.720Z,96.55
2019-01-11T22:13:28.862Z,96.66
2019-01-11T22:17:39.608Z,96.63
2019-01-11T22:21:49.493Z,96.60
2019-01-11T22:25:58.201Z,96.68
2019-01-11T22:30:09.562Z,96.87
2019-01-11T22:34:17.015Z,96.85
2019-01-11T22:38:26.105Z,96.94
2019-01-11T22:42:33.238Z,97.02
2019-01-11T22:46:40.957Z,96.96
2019-01-11T22:50:48.160Z,97.02
2019-01-11T22:54:55.219Z,97.11
2019-01-11T22:59:03.150Z,97.05
2019-01-11T23:03:19.125Z,97.08
2019-01-11T23:07:47.062Z,97.17
2019-01-11T23:12:28.367Z,97.18
2019-01-11T23:17:14.345Z,97.27
2019-01-11T23:21:21.772Z,97.42
2019-01-11T23:25:29.061Z,97.39
2019-01-11T23:29:36.721Z,97.31
2019-01-11T23:33:44.137Z,97.37
2019-01-11T23:38:00.165Z,97.38
2019-01-11T23:42:07.668Z,97.57
2019-01-11T23:46:15.050Z,97.86
2019-01-11T23:50:22.679Z,97.80
2019-01-11T23:54:30.268Z,97.58
2019-01-11T23:58:37.613Z,97.87
